Time;durP1;ratioP1;P1;durP2;ratioP2;P2;SDS_P1;SDS_P2;PMS_P1;PMS_P2;Temp;Humidity;BMP_temperature;BMP_pressure;BME280_temperature;BME280_humidity;BME280_pressure;Samples;Min_cycle;Max_cycle;Signal;HPM_P1;HPM_P2
2021/08/16 00:00:35;;;;;;;6.13;1.85;;;19.50;99.90;;;;;;5003445;28;20501;-67
2021/08/16 00:03:01;;;;;;;8.52;2.40;;;19.50;99.90;;;;;;5003721;28;20839;-67
2021/08/16 00:05:26;;;;;;;7.18;2.28;;;19.50;99.90;;;;;;5006444;28;20033;-67
2021/08/16 00:07:52;;;;;;;8.57;2.65;;;19.40;99.90;;;;;;5004583;28;20022;-67
2021/08/16 00:10:18;;;;;;;6.47;2.28;;;19.40;99.90;;;;;;5004772;28;20103;-67
2021/08/16 00:12:44;;;;;;;9.23;3.38;;;19.30;99.90;;;;;;5007011;28;20101;-67
2021/08/16 00:15:10;;;;;;;11.52;3.33;;;19.20;99.90;;;;;;4999658;28;20179;-67
2021/08/16 00:17:35;;;;;;;9.88;3.60;;;19.00;99.90;;;;;;5004838;28;20041;-67
2021/08/16 00:20:01;;;;;;;8.68;3.40;;;20.00;99.90;;;;;;5003443;28;20049;-67
2021/08/16 00:22:27;;;;;;;7.78;2.83;;;18.90;99.90;;;;;;5006162;28;20378;-67
2021/08/16 00:24:52;;;;;;;8.00;3.30;;;18.80;99.90;;;;;;5006255;28;20048;-67
2021/08/16 00:27:19;;;;;;;9.82;3.60;;;18.70;99.90;;;;;;4985385;28;20459;-67
2021/08/16 00:29:45;;;;;;;9.82;3.25;;;18.60;99.90;;;;;;5003847;28;20034;-67
2021/08/16 00:32:11;;;;;;;9.30;3.28;;;18.50;99.90;;;;;;5003043;28;20033;-67
2021/08/16 00:34:36;;;;;;;10.57;3.47;;;18.50;99.90;;;;;;5008047;28;20030;-67
2021/08/16 00:37:02;;;;;;;10.55;3.33;;;18.50;99.90;;;;;;5008553;28;20502;-67
2021/08/16 00:39:28;;;;;;;10.90;3.75;;;18.50;99.90;;;;;;5009025;28;20022;-67
2021/08/16 00:41:54;;;;;;;8.95;3.45;;;18.50;99.90;;;;;;5009516;28;20088;-67
2021/08/16 00:44:20;;;;;;;8.95;2.88;;;18.50;99.90;;;;;;5009668;28;20041;-67
2021/08/16 00:46:46;;;;;;;9.60;3.50;;;18.50;99.90;;;;;;4991245;28;20030;-67
2021/08/16 00:49:11;;;;;;;9.50;3.50;;;18.50;99.90;;;;;;5006948;28;20056;-68
2021/08/16 00:51:38;;;;;;;11.30;3.35;;;18.40;99.90;;;;;;5007643;28;20042;-67
2021/08/16 00:54:06;;;;;;;8.05;3.20;;;18.40;99.90;;;;;;5009431;28;20033;-67
2021/08/16 00:56:32;;;;;;;8.73;3.45;;;18.40;99.90;;;;;;5008121;28;20124;-67
2021/08/16 00:58:59;;;;;;;8.38;3.17;;;18.30;99.90;;;;;;5007827;28;20026;-67
2021/08/16 01:01:28;;;;;;;8.52;3.40;;;18.20;99.90;;;;;;5006751;28;20036;-67
2021/08/16 01:03:53;;;;;;;10.18;3.40;;;18.20;99.90;;;;;;5008380;28;20101;-67
2021/08/16 01:06:19;;;;;;;11.40;3.10;;;18.30;99.90;;;;;;5007978;28;20121;-67
2021/08/16 01:08:47;;;;;;;7.22;2.92;;;18.30;99.90;;;;;;5007120;28;20469;-67
2021/08/16 01:11:13;;;;;;;9.93;3.60;;;18.40;99.90;;;;;;4997036;28;20113;-67
2021/08/16 01:13:39;;;;;;;6.07;2.33;;;18.40;99.90;;;;;;4994550;28;20073;-68
2021/08/16 01:16:05;;;;;;;8.73;3.08;;;18.40;99.90;;;;;;5004678;28;20117;-67
2021/08/16 01:18:32;;;;;;;7.80;3.13;;;18.40;99.90;;;;;;5007594;28;20460;-67
2021/08/16 01:21:03;;;;;;;9.32;3.70;;;18.30;99.90;;;;;;5007483;28;20132;-67
2021/08/16 01:23:29;;;;;;;7.18;2.80;;;18.30;99.90;;;;;;5008632;28;20096;-67
2021/08/16 01:25:54;;;;;;;6.85;2.92;;;18.30;99.90;;;;;;5002989;28;20022;-67
2021/08/16 01:28:21;;;;;;;10.02;3.17;;;18.20;99.90;;;;;;5007076;28;20382;-67
2021/08/16 01:30:53;;;;;;;7.00;2.55;;;18.20;99.90;;;;;;5008222;28;20537;-67
2021/08/16 01:33:19;;;;;;;11.65;4.22;;;18.10;99.90;;;;;;4989350;28;20038;-68
2021/08/16 01:35:44;;;;;;;7.43;3.30;;;18.10;99.90;;;;;;5008393;28;20100;-67
2021/08/16 01:38:10;;;;;;;8.18;3.17;;;18.00;99.90;;;;;;5005507;28;20424;-67
2021/08/16 01:40:36;;;;;;;11.65;2.72;;;17.90;99.90;;;;;;5007575;28;20681;-66
2021/08/16 01:43:02;;;;;;;8.15;2.33;;;;;;;;;;4991318;28;20036;-67
2021/08/16 01:45:28;;;;;;;5.57;1.85;;;17.80;99.90;;;;;;5005892;28;20029;-67
2021/08/16 01:47:54;;;;;;;8.82;2.30;;;17.70;99.90;;;;;;5006173;28;20026;-67
2021/08/16 01:50:19;;;;;;;6.03;1.92;;;17.40;99.90;;;;;;5007585;28;20462;-67
2021/08/16 01:52:45;;;;;;;6.80;2.53;;;17.40;99.90;;;;;;5009172;28;20021;-67
2021/08/16 01:55:13;;;;;;;9.05;2.78;;;17.20;99.90;;;;;;5007315;28;20519;-67
2021/08/16 01:57:38;;;;;;;10.52;2.88;;;17.10;99.90;;;;;;5005368;28;20519;-67
2021/08/16 02:00:05;;;;;;;8.85;2.40;;;17.00;99.90;;;;;;5007035;28;20057;-67
2021/08/16 02:02:30;;;;;;;10.10;2.60;;;16.90;99.90;;;;;;5007508;28;20038;-67
2021/08/16 02:04:57;;;;;;;10.10;2.20;;;16.80;99.90;;;;;;5005110;28;20381;-67
2021/08/16 02:07:24;;;;;;;4.95;1.80;;;16.70;99.90;;;;;;5006761;28;20145;-68
2021/08/16 02:09:49;;;;;;;8.23;2.78;;;16.60;99.90;;;;;;5007361;28;20460;-67
2021/08/16 02:12:15;;;;;;;6.82;1.77;;;16.50;99.90;;;;;;5006544;28;20174;-67
2021/08/16 02:14:40;;;;;;;6.60;2.08;;;16.40;99.90;;;;;;5007645;28;20030;-67
2021/08/16 02:17:06;;;;;;;10.55;2.50;;;16.30;99.90;;;;;;5005861;28;20042;-67
2021/08/16 02:19:32;;;;;;;6.85;2.10;;;16.20;99.90;;;;;;5002925;28;20085;-67
2021/08/16 02:21:58;;;;;;;8.48;2.33;;;16.20;99.90;;;;;;5008464;28;20034;-67
2021/08/16 02:24:23;;;;;;;11.10;2.13;;;16.20;99.90;;;;;;5005884;28;20033;-68
2021/08/16 02:26:49;;;;;;;6.35;1.50;;;16.10;99.90;;;;;;5006369;28;20044;-67
2021/08/16 02:29:15;;;;;;;5.75;1.98;;;16.10;99.90;;;;;;5004798;28;20382;-67
2021/08/16 02:31:40;;;;;;;10.57;2.40;;;16.00;99.90;;;;;;5006769;28;20033;-67
2021/08/16 02:34:06;;;;;;;12.25;2.55;;;15.90;99.90;;;;;;5003969;28;20107;-68
2021/08/16 02:36:32;;;;;;;9.45;2.50;;;15.80;99.90;;;;;;5005335;28;20042;-67
2021/08/16 02:38:58;;;;;;;4.40;1.77;;;15.80;99.90;;;;;;5006837;28;20032;-67
2021/08/16 02:41:23;;;;;;;7.78;1.95;;;15.80;99.90;;;;;;5002465;28;20032;-67
2021/08/16 02:43:49;;;;;;;11.48;2.35;;;15.80;99.90;;;;;;5002969;28;20080;-67
2021/08/16 02:46:15;;;;;;;8.13;2.15;;;15.80;99.90;;;;;;4999751;28;20061;-67
2021/08/16 02:48:40;;;;;;;5.80;1.70;;;15.70;99.90;;;;;;5004121;28;20119;-66
2021/08/16 02:51:06;;;;;;;12.45;2.92;;;15.80;99.90;;;;;;5002862;28;20030;-67
2021/08/16 02:53:32;;;;;;;9.45;2.38;;;15.80;99.90;;;;;;5006381;28;20033;-67
2021/08/16 02:55:57;;;;;;;10.80;2.53;;;15.80;99.90;;;;;;5005461;28;20497;-67
2021/08/16 02:58:24;;;;;;;8.20;2.50;;;15.90;99.90;;;;;;5003350;28;20140;-67
2021/08/16 03:00:50;;;;;;;7.82;2.13;;;16.00;99.90;;;;;;5002923;28;20040;-67
2021/08/16 03:03:16;;;;;;;13.63;2.42;;;16.10;99.90;;;;;;5005513;28;20118;-67
2021/08/16 03:05:42;;;;;;;8.18;2.38;;;16.20;99.90;;;;;;5004958;28;20030;-67
2021/08/16 03:08:08;;;;;;;8.15;2.50;;;16.20;99.90;;;;;;5005488;28;20040;-67
2021/08/16 03:10:34;;;;;;;9.85;2.80;;;16.20;99.90;;;;;;5012305;28;20026;-67
2021/08/16 03:13:00;;;;;;;8.77;2.53;;;16.20;99.90;;;;;;4997694;28;20385;-67
2021/08/16 03:15:26;;;;;;;7.05;2.03;;;16.20;99.90;;;;;;5007080;28;20029;-67
2021/08/16 03:17:52;;;;;;;12.27;2.60;;;16.30;99.90;;;;;;5005478;28;20022;-67
2021/08/16 03:20:18;;;;;;;11.32;2.70;;;16.30;99.90;;;;;;5005289;28;20046;-67
2021/08/16 03:22:44;;;;;;;9.57;2.80;;;16.20;99.90;;;;;;4985554;28;20030;-67
2021/08/16 03:25:10;;;;;;;9.85;2.78;;;16.30;99.90;;;;;;4987517;28;20041;-67
2021/08/16 03:27:36;;;;;;;10.85;3.15;;;16.20;99.90;;;;;;5005050;28;20029;-68
2021/08/16 03:30:04;;;;;;;10.43;2.92;;;16.20;99.90;;;;;;5007639;28;20109;-68
2021/08/16 03:32:29;;;;;;;7.53;2.10;;;16.20;99.90;;;;;;5001947;28;20967;-67
2021/08/16 03:34:55;;;;;;;11.27;2.67;;;16.20;99.90;;;;;;5005076;28;20105;-67
2021/08/16 03:37:21;;;;;;;13.50;3.10;;;16.20;99.90;;;;;;5006706;28;20363;-68
2021/08/16 03:39:46;;;;;;;8.10;3.00;;;16.20;99.90;;;;;;5006486;28;20037;-67
2021/08/16 03:42:12;;;;;;;10.00;3.17;;;16.20;99.90;;;;;;5003981;28;20038;-67
2021/08/16 03:44:38;;;;;;;9.20;2.72;;;16.30;99.90;;;;;;5006230;28;20038;-67
2021/08/16 03:47:06;;;;;;;9.05;3.72;;;16.30;99.90;;;;;;5001548;28;20585;-67
2021/08/16 03:49:32;;;;;;;10.65;4.45;;;16.30;99.90;;;;;;5005431;28;20037;-68
2021/08/16 03:51:58;;;;;;;10.45;3.70;;;16.30;99.90;;;;;;5003723;28;20041;-67
2021/08/16 03:54:23;;;;;;;11.38;3.70;;;16.30;99.90;;;;;;5003367;28;20464;-67
2021/08/16 03:56:49;;;;;;;19.35;5.70;;;16.30;99.90;;;;;;5003767;28;20045;-67
2021/08/16 03:59:14;;;;;;;18.27;4.80;;;16.30;99.90;;;;;;5004298;28;20109;-67
2021/08/16 04:01:40;;;;;;;8.27;3.17;;;16.30;99.90;;;;;;5005729;28;20113;-67
2021/08/16 04:04:07;;;;;;;16.17;6.57;;;16.30;99.90;;;;;;5005025;28;20026;-67
2021/08/16 04:06:33;;;;;;;17.27;6.00;;;16.30;99.90;;;;;;5005607;28;20072;-67
2021/08/16 04:08:58;;;;;;;18.25;6.28;;;16.30;99.90;;;;;;5006302;28;20022;-67
2021/08/16 04:11:24;;;;;;;14.98;5.75;;;16.20;99.90;;;;;;5007860;28;20124;-67
2021/08/16 04:13:49;;;;;;;17.98;6.15;;;16.20;99.90;;;;;;5010615;28;20409;-67
2021/08/16 04:16:15;;;;;;;13.70;4.85;;;16.20;99.90;;;;;;5012153;28;20139;-68
2021/08/16 04:18:41;;;;;;;22.02;7.18;;;16.20;99.90;;;;;;5011756;28;20496;-68
2021/08/16 04:21:07;;;;;;;15.70;6.82;;;16.20;99.90;;;;;;5006756;28;20038;-68
2021/08/16 04:23:32;;;;;;;19.10;6.82;;;16.20;99.90;;;;;;5009443;28;20112;-69
2021/08/16 04:25:58;;;;;;;12.88;5.13;;;16.30;99.90;;;;;;5009452;28;20703;-68
2021/08/16 04:28:24;;;;;;;16.20;6.45;;;16.20;99.90;;;;;;5009721;28;20133;-69
2021/08/16 04:30:49;;;;;;;14.10;6.07;;;16.10;99.90;;;;;;4998721;28;20026;-68
2021/08/16 04:33:15;;;;;;;17.30;6.28;;;16.20;99.90;;;;;;5008793;28;20084;-68
2021/08/16 04:35:41;;;;;;;17.45;6.93;;;16.20;99.90;;;;;;5007042;28;20041;-68
2021/08/16 04:38:06;;;;;;;13.88;6.30;;;16.20;99.90;;;;;;5005003;28;20022;-68
2021/08/16 04:40:32;;;;;;;11.93;4.82;;;16.20;99.90;;;;;;5006892;28;20030;-67
2021/08/16 04:42:59;;;;;;;13.52;5.60;;;16.20;99.90;;;;;;5008510;28;20025;-67
2021/08/16 04:45:25;;;;;;;17.42;5.55;;;16.20;99.90;;;;;;5006872;28;20117;-68
2021/08/16 04:47:50;;;;;;;14.15;4.82;;;16.20;99.90;;;;;;4991085;28;20105;-69
2021/08/16 04:50:17;;;;;;;14.02;4.15;;;16.20;99.90;;;;;;5006112;28;20092;-68
2021/08/16 04:52:43;;;;;;;15.18;4.50;;;16.20;99.90;;;;;;5007264;28;20050;-69
2021/08/16 04:55:09;;;;;;;11.40;4.07;;;16.20;99.90;;;;;;5004683;28;20073;-68
2021/08/16 04:57:39;;;;;;;15.73;4.70;;;16.20;99.90;;;;;;5007305;28;20096;-66
2021/08/16 05:00:11;;;;;;;13.90;4.30;;;16.30;99.90;;;;;;5005011;28;20026;-66
2021/08/16 05:02:37;;;;;;;12.25;4.70;;;16.20;99.90;;;;;;5005883;28;20037;-66
2021/08/16 05:05:23;;;;;;;12.70;5.00;;;16.30;99.90;;;;;;5005029;28;20462;-69
2021/08/16 05:07:52;;;;;;;16.63;4.57;;;16.30;99.90;;;;;;5005213;28;20026;-67
2021/08/16 05:10:22;;;;;;;13.00;4.03;;;16.30;99.90;;;;;;5002703;28;20875;-67
2021/08/16 05:12:49;;;;;;;10.52;3.97;;;16.30;99.90;;;;;;5007586;28;20045;-67
2021/08/16 05:15:15;;;;;;;12.82;3.80;;;16.40;99.90;;;;;;5003522;28;20044;-67
2021/08/16 05:17:42;;;;;;;9.20;3.67;;;16.30;99.90;;;;;;5006786;28;20421;-67
2021/08/16 05:20:09;;;;;;;14.75;4.07;;;16.30;99.90;;;;;;5005313;28;20058;-66
2021/08/16 05:22:37;;;;;;;16.02;4.38;;;16.30;99.90;;;;;;5005230;28;20424;-67
2021/08/16 05:25:04;;;;;;;9.30;4.05;;;16.30;99.90;;;;;;5008750;28;20025;-67
2021/08/16 05:27:30;;;;;;;13.57;4.13;;;16.40;99.90;;;;;;5008627;28;20057;-66
2021/08/16 05:29:56;;;;;;;17.23;4.00;;;16.40;99.90;;;;;;5005685;28;20053;-67
2021/08/16 05:32:21;;;;;;;13.10;3.85;;;16.40;99.90;;;;;;5005198;28;20107;-67
2021/08/16 05:34:47;;;;;;;11.25;4.13;;;16.40;99.90;;;;;;5003286;28;20084;-67
2021/08/16 05:37:12;;;;;;;10.32;3.38;;;16.40;99.90;;;;;;5001634;28;20048;-67
2021/08/16 05:39:38;;;;;;;10.55;3.47;;;16.30;99.90;;;;;;4987069;28;20038;-67
2021/08/16 05:42:04;;;;;;;13.35;4.85;;;16.40;99.90;;;;;;5002148;28;20049;-67
2021/08/16 05:44:30;;;;;;;13.20;4.45;;;16.40;99.90;;;;;;5004019;28;20064;-67
2021/08/16 05:46:56;;;;;;;11.82;3.80;;;16.50;99.90;;;;;;5002126;28;20037;-67
2021/08/16 05:49:22;;;;;;;13.35;4.20;;;16.60;99.90;;;;;;5004918;28;20072;-66
2021/08/16 05:51:48;;;;;;;9.00;3.72;;;16.40;99.90;;;;;;5008351;28;20126;-67
2021/08/16 05:54:13;;;;;;;11.15;4.28;;;16.50;99.90;;;;;;5009136;28;20430;-68
2021/08/16 05:56:39;;;;;;;9.98;3.70;;;16.50;99.90;;;;;;5007099;28;20036;-67
2021/08/16 05:59:05;;;;;;;12.20;4.18;;;16.60;99.90;;;;;;5004817;28;20109;-67
2021/08/16 06:01:38;;;;;;;15.75;4.47;;;16.60;99.90;;;;;;5004323;28;20126;-67
2021/08/16 06:04:05;;;;;;;12.65;3.38;;;16.70;99.90;;;;;;5004561;28;20224;-68
2021/08/16 06:06:30;;;;;;;14.68;4.00;;;16.60;99.90;;;;;;5004354;28;20030;-67
2021/08/16 06:08:57;;;;;;;14.02;3.65;;;16.60;99.90;;;;;;5005646;28;20433;-67
2021/08/16 06:11:22;;;;;;;16.25;4.13;;;16.70;99.90;;;;;;5003701;28;20034;-68
2021/08/16 06:13:49;;;;;;;12.52;4.20;;;16.70;99.90;;;;;;5003976;28;20105;-67
2021/08/16 06:16:15;;;;;;;11.82;3.90;;;16.80;99.90;;;;;;5002075;28;20038;-68
2021/08/16 06:18:41;;;;;;;14.38;4.63;;;16.80;99.90;;;;;;5004075;28;20022;-68
2021/08/16 06:21:06;;;;;;;13.15;4.40;;;16.90;99.90;;;;;;5004224;28;20105;-68
2021/08/16 06:23:33;;;;;;;11.75;3.88;;;17.00;99.90;;;;;;5004835;28;20500;-69
2021/08/16 06:25:59;;;;;;;12.68;4.35;;;17.00;99.90;;;;;;4987453;28;20025;-68
2021/08/16 06:28:25;;;;;;;11.95;3.60;;;17.00;99.90;;;;;;5001766;28;20026;-67
2021/08/16 06:30:50;;;;;;;14.23;4.90;;;17.00;99.90;;;;;;5004818;28;20026;-68
2021/08/16 06:33:16;;;;;;;8.93;3.30;;;17.10;99.90;;;;;;5005886;28;20049;-68
2021/08/16 06:35:42;;;;;;;10.45;3.85;;;17.30;99.90;;;;;;5004356;28;20038;-68
2021/08/16 06:38:20;;;;;;;8.85;2.83;;;17.30;99.90;;;;;;5002706;28;20300;-68
2021/08/16 06:40:45;;;;;;;10.10;3.70;;;17.30;99.90;;;;;;5004236;28;20493;-67
2021/08/16 06:43:11;;;;;;;12.82;4.40;;;17.20;99.90;;;;;;5004805;28;20041;-68
2021/08/16 06:45:37;;;;;;;14.48;4.40;;;17.10;99.90;;;;;;5002967;28;20033;-67
2021/08/16 06:48:03;;;;;;;7.55;3.03;;;17.10;99.90;;;;;;5003358;28;20096;-67
2021/08/16 06:50:29;;;;;;;13.13;4.05;;;17.20;99.90;;;;;;5000439;28;20030;-68
2021/08/16 06:52:55;;;;;;;12.65;4.20;;;17.40;99.90;;;;;;5004482;28;20080;-68
2021/08/16 06:55:20;;;;;;;10.18;4.05;;;17.50;99.90;;;;;;5005318;28;20030;-68
2021/08/16 06:57:46;;;;;;;13.65;3.60;;;17.40;99.90;;;;;;5004417;28;20025;-68
2021/08/16 07:00:12;;;;;;;11.68;3.58;;;18.00;99.90;;;;;;5003290;28;20105;-67
2021/08/16 07:02:39;;;;;;;12.73;3.70;;;17.50;99.90;;;;;;5003180;28;20032;-68
2021/08/16 07:05:08;;;;;;;11.52;3.80;;;17.40;99.90;;;;;;5004013;28;20018;-68
2021/08/16 07:07:33;;;;;;;15.43;4.05;;;17.40;99.90;;;;;;5004838;28;20127;-67
2021/08/16 07:09:59;;;;;;;10.65;3.95;;;17.60;99.90;;;;;;5005105;28;20550;-67
2021/08/16 07:12:25;;;;;;;12.40;3.70;;;17.50;99.90;;;;;;5004757;28;20322;-68
2021/08/16 07:14:50;;;;;;;9.10;3.42;;;17.50;99.90;;;;;;5003147;28;20108;-67
2021/08/16 07:17:16;;;;;;;11.43;3.75;;;17.30;99.90;;;;;;5002023;28;21602;-67
2021/08/16 07:19:42;;;;;;;10.30;3.33;;;16.50;99.90;;;;;;5002003;28;20073;-67
2021/08/16 07:22:07;;;;;;;10.40;3.80;;;17.30;99.90;;;;;;5005232;28;20064;-67
2021/08/16 07:24:33;;;;;;;15.30;4.35;;;17.50;99.90;;;;;;5005981;28;20092;-68
2021/08/16 07:26:58;;;;;;;9.85;3.53;;;17.80;99.90;;;;;;5006133;28;20018;-69
2021/08/16 07:29:25;;;;;;;11.43;3.80;;;17.70;99.90;;;;;;5005920;28;20030;-67
2021/08/16 07:31:52;;;;;;;9.13;3.33;;;17.50;99.90;;;;;;5006519;28;20026;-70
2021/08/16 07:34:17;;;;;;;12.25;4.28;;;17.60;99.90;;;;;;4998850;28;20490;-67
2021/08/16 07:36:43;;;;;;;11.23;3.47;;;17.90;99.90;;;;;;4987980;28;20116;-68
2021/08/16 07:39:09;;;;;;;14.80;3.42;;;18.00;99.90;;;;;;5004133;28;20124;-68
2021/08/16 07:41:34;;;;;;;10.70;3.97;;;18.10;99.90;;;;;;5004045;28;20033;-68
2021/08/16 07:44:00;;;;;;;13.57;4.95;;;18.10;99.90;;;;;;5009604;28;20022;-68
2021/08/16 07:46:26;;;;;;;8.88;2.40;;;18.00;99.90;;;;;;5001833;28;20552;-68
2021/08/16 07:48:51;;;;;;;10.85;3.33;;;17.90;99.90;;;;;;5003912;28;20029;-68
2021/08/16 07:51:17;;;;;;;8.25;2.92;;;17.80;99.90;;;;;;5004741;28;20026;-68
2021/08/16 07:53:44;;;;;;;9.20;3.17;;;18.10;99.90;;;;;;5005956;28;20117;-68
2021/08/16 07:56:09;;;;;;;10.48;3.05;;;18.00;99.90;;;;;;5006579;28;20497;-68
2021/08/16 07:58:35;;;;;;;11.73;4.53;;;17.80;99.90;;;;;;5009986;28;20018;-68
2021/08/16 08:01:01;;;;;;;9.52;3.40;;;18.10;99.90;;;;;;4986074;28;20076;-68
2021/08/16 08:03:29;;;;;;;11.85;3.22;;;18.40;99.90;;;;;;5006377;28;20049;-67
2021/08/16 08:05:54;;;;;;;10.40;3.50;;;18.40;99.90;;;;;;5005303;28;20540;-68
2021/08/16 08:08:20;;;;;;;8.50;2.67;;;18.20;99.90;;;;;;5003548;28;20030;-68
2021/08/16 08:10:46;;;;;;;9.25;3.10;;;18.30;99.90;;;;;;5001710;28;20034;-68
2021/08/16 08:13:13;;;;;;;6.88;2.05;;;18.50;99.90;;;;;;5002186;28;20044;-67
2021/08/16 08:15:40;;;;;;;10.82;2.95;;;18.50;99.90;;;;;;5001692;28;20025;-68
2021/08/16 08:18:06;;;;;;;8.68;2.63;;;18.50;99.90;;;;;;5004051;28;20026;-67
2021/08/16 08:20:32;;;;;;;9.95;3.13;;;18.70;99.90;;;;;;5001599;28;20390;-68
2021/08/16 08:22:57;;;;;;;9.10;2.85;;;18.80;99.90;;;;;;5008057;28;20037;-68
2021/08/16 08:25:23;;;;;;;12.80;2.97;;;19.10;99.90;;;;;;5004063;28;20749;-68
2021/08/16 08:27:49;;;;;;;10.40;2.67;;;19.10;99.90;;;;;;4987274;28;20440;-67
2021/08/16 08:30:14;;;;;;;10.52;3.00;;;19.30;99.90;;;;;;5007590;28;20050;-70
2021/08/16 08:32:58;;;;;;;8.00;2.75;;;18.90;99.90;;;;;;5001277;28;20088;-70
2021/08/16 08:35:24;;;;;;;10.00;3.05;;;18.90;99.90;;;;;;5002536;28;20129;-70
2021/08/16 08:37:50;;;;;;;7.55;2.75;;;18.80;99.90;;;;;;5004477;28;20101;-69
2021/08/16 08:40:16;;;;;;;9.00;2.63;;;18.90;99.90;;;;;;5004337;28;20386;-69
2021/08/16 08:42:52;;;;;;;7.85;2.40;;;19.00;99.90;;;;;;5000437;28;20517;-69
2021/08/16 08:45:26;;;;;;;10.73;2.70;;;19.10;99.90;;;;;;5001275;28;20026;-69
2021/08/16 08:47:52;;;;;;;8.20;2.90;;;19.10;99.90;;;;;;4999865;28;20060;-70
2021/08/16 08:50:18;;;;;;;7.63;2.50;;;19.20;99.90;;;;;;5001831;28;20113;-69
2021/08/16 08:52:44;;;;;;;7.68;2.85;;;19.20;99.90;;;;;;5005454;28;20034;-69
2021/08/16 08:55:12;;;;;;;7.68;2.33;;;18.80;99.90;;;;;;5006465;28;20026;-70
2021/08/16 08:57:40;;;;;;;5.50;2.05;;;19.30;99.90;;;;;;4988503;28;20486;-67
2021/08/16 09:00:08;;;;;;;10.98;2.70;;;19.60;99.90;;;;;;5006233;28;20037;-67
2021/08/16 09:02:35;;;;;;;8.95;2.30;;;20.10;99.90;;;;;;5005817;28;20026;-70
2021/08/16 09:05:02;;;;;;;9.35;2.63;;;20.80;99.90;;;;;;5005189;28;20359;-70
2021/08/16 09:07:39;;;;;;;8.20;2.00;;;22.10;99.90;;;;;;5007119;28;20030;-69
2021/08/16 09:10:11;;;;;;;5.03;1.83;;;22.10;99.90;;;;;;5005854;28;20101;-67
2021/08/16 09:12:38;;;;;;;5.90;1.95;;;21.40;99.90;;;;;;5008066;28;20037;-67
2021/08/16 09:15:19;;;;;;;6.97;2.40;;;20.70;99.90;;;;;;5009453;28;20061;-67
2021/08/16 09:17:46;;;;;;;8.07;2.40;;;20.30;99.90;;;;;;4988607;28;20065;-68
2021/08/16 09:20:18;;;;;;;8.93;2.78;;;20.10;99.90;;;;;;5007861;28;20042;-70
2021/08/16 09:22:59;;;;;;;7.40;2.70;;;19.80;99.90;;;;;;5007127;28;20120;-69
2021/08/16 09:25:32;;;;;;;8.45;2.72;;;19.90;99.90;;;;;;5005226;28;20045;-70
2021/08/16 09:27:58;;;;;;;6.72;2.38;;;19.60;99.90;;;;;;5005533;28;20553;-70
2021/08/16 09:30:33;;;;;;;8.77;2.38;;;19.60;99.90;;;;;;4994029;28;20029;-68
2021/08/16 09:33:16;;;;;;;8.02;2.60;;;19.70;99.90;;;;;;5007336;28;20033;-68
2021/08/16 09:35:53;;;;;;;6.85;1.77;;;19.60;99.90;;;;;;5007934;28;20034;-68
2021/08/16 09:38:34;;;;;;;8.75;2.75;;;19.70;99.90;;;;;;5008192;28;20022;-68
2021/08/16 09:41:01;;;;;;;7.88;2.55;;;19.70;99.90;;;;;;5008974;28;20057;-67
2021/08/16 09:43:27;;;;;;;9.90;2.50;;;19.80;99.90;;;;;;5004764;28;20056;-67
2021/08/16 09:45:53;;;;;;;7.18;1.95;;;20.40;99.90;;;;;;4989066;28;20037;-67
2021/08/16 09:48:23;;;;;;;9.48;2.20;;;21.00;99.90;;;;;;5003237;28;20030;-68
2021/08/16 09:50:51;;;;;;;10.70;2.50;;;21.20;99.90;;;;;;5006398;28;20124;-67
2021/08/16 09:53:19;;;;;;;6.82;2.00;;;20.70;99.90;;;;;;5007287;28;20032;-68
2021/08/16 09:55:48;;;;;;;5.70;2.00;;;20.70;99.90;;;;;;5010027;28;20393;-68
2021/08/16 09:58:16;;;;;;;5.70;2.25;;;20.00;99.90;;;;;;5004710;28;20042;-67
2021/08/16 10:00:43;;;;;;;8.00;2.10;;;19.80;99.90;;;;;;5005193;28;20022;-68
2021/08/16 10:03:11;;;;;;;6.72;2.30;;;20.30;99.90;;;;;;5005442;28;20045;-67
2021/08/16 10:05:39;;;;;;;7.70;2.45;;;20.10;99.90;;;;;;5002236;28;20032;-69
2021/08/16 10:08:07;;;;;;;9.38;2.75;;;20.10;99.90;;;;;;4997028;28;20033;-70
2021/08/16 10:10:37;;;;;;;7.18;1.95;;;20.30;99.90;;;;;;4993031;28;20496;-69
2021/08/16 10:13:03;;;;;;;;;;;20.60;99.90;;;;;;5004831;28;20033;-70
2021/08/16 10:15:34;;;;;;;7.90;2.28;;;20.50;99.90;;;;;;5007010;28;19917;-70
2021/08/16 10:18:01;;;;;;;6.85;2.22;;;20.20;99.90;;;;;;5007455;28;20037;-70
2021/08/16 10:20:31;;;;;;;10.57;2.83;;;19.90;99.90;;;;;;5007246;28;20549;-69
2021/08/16 10:22:57;;;;;;;7.82;2.45;;;19.90;99.90;;;;;;5000281;28;20053;-69
2021/08/16 10:25:23;;;;;;;7.32;2.03;;;20.00;99.90;;;;;;4991818;28;20117;-69
2021/08/16 10:27:58;;;;;;;8.10;2.25;;;20.40;99.90;;;;;;5005825;28;20104;-69
2021/08/16 10:30:24;;;;;;;7.93;2.85;;;20.60;99.90;;;;;;5007488;28;20034;-69
2021/08/16 10:33:01;;;;;;;7.20;2.10;;;19.60;99.90;;;;;;5006994;28;20030;-69
2021/08/16 10:35:38;;;;;;;8.50;2.75;;;19.10;99.90;;;;;;4991472;28;20073;-69
2021/08/16 10:38:10;;;;;;;6.03;2.50;;;18.80;99.90;;;;;;5007729;28;20029;-70
2021/08/16 10:40:51;;;;;;;7.28;2.85;;;18.10;99.90;;;;;;5001520;28;20042;-70
2021/08/16 10:43:19;;;;;;;9.30;3.20;;;17.70;99.90;;;;;;5004181;28;20417;-71
2021/08/16 10:45:49;;;;;;;8.10;3.55;;;17.40;99.90;;;;;;4993242;28;20504;-70
2021/08/16 10:48:29;;;;;;;10.32;3.35;;;17.00;99.90;;;;;;5006275;28;20044;-72
2021/08/16 10:51:08;;;;;;;8.45;3.75;;;16.90;99.90;;;;;;5004742;28;20087;-71
2021/08/16 10:53:54;;;;;;;11.88;4.95;;;16.60;99.90;;;;;;4997684;28;20042;-71
2021/08/16 10:56:24;;;;;;;9.73;3.63;;;16.70;99.90;;;;;;5003504;28;20042;-71
2021/08/16 10:58:52;;;;;;;11.60;3.83;;;16.60;99.90;;;;;;5002085;28;20029;-72
2021/08/16 11:01:30;;;;;;;7.15;2.60;;;16.40;99.90;;;;;;5000256;28;20025;-73
2021/08/16 11:03:57;;;;;;;10.40;4.03;;;16.10;99.90;;;;;;5002406;28;20026;-73
2021/08/16 11:06:22;;;;;;;5.63;1.88;;;16.00;99.90;;;;;;5001013;28;20049;-73
2021/08/16 11:08:54;;;;;;;7.20;2.83;;;16.10;99.90;;;;;;5002458;28;20054;-73
2021/08/16 11:11:19;;;;;;;6.43;2.50;;;16.10;99.90;;;;;;5002758;28;20061;-73
2021/08/16 11:13:45;;;;;;;9.10;3.40;;;16.10;99.90;;;;;;4988507;28;20496;-73
2021/08/16 11:16:10;;;;;;;13.63;4.28;;;16.50;99.90;;;;;;5013045;28;20042;-73
2021/08/16 11:18:36;;;;;;;8.15;3.45;;;16.50;99.90;;;;;;5004946;28;20057;-72
2021/08/16 11:21:06;;;;;;;6.18;2.40;;;16.20;99.90;;;;;;5006511;28;20021;-72
2021/08/16 11:23:32;;;;;;;5.22;2.17;;;16.10;99.90;;;;;;5000830;28;20029;-73
2021/08/16 11:25:59;;;;;;;7.85;4.40;;;15.50;99.90;;;;;;5004869;28;20060;-72
2021/08/16 11:28:29;;;;;;;8.55;3.40;;;15.20;99.90;;;;;;5004721;28;20080;-73
2021/08/16 11:31:05;;;;;;;11.68;4.28;;;14.90;99.90;;;;;;5004516;28;20033;-73
2021/08/16 11:33:31;;;;;;;8.27;3.92;;;14.60;99.90;;;;;;5001721;28;20026;-73
2021/08/16 11:36:32;;;;;;;9.73;3.42;;;14.50;99.90;;;;;;5004325;28;20033;-73
2021/08/16 11:38:57;;;;;;;10.00;3.50;;;14.50;99.90;;;;;;5005420;28;20061;-73
2021/08/16 11:41:29;;;;;;;12.20;4.38;;;14.50;99.90;;;;;;5006331;28;20057;-73
2021/08/16 11:43:55;;;;;;;9.90;4.18;;;14.50;99.90;;;;;;4992281;28;20435;-73
2021/08/16 11:46:20;;;;;;;13.15;5.32;;;14.60;99.90;;;;;;5006882;28;20040;-73
2021/08/16 11:48:50;;;;;;;11.57;4.22;;;14.80;99.90;;;;;;5005874;28;20044;-73
2021/08/16 11:51:16;;;;;;;13.45;5.03;;;14.90;99.90;;;;;;5005352;28;20092;-73
2021/08/16 11:53:44;;;;;;;10.32;4.22;;;14.90;99.90;;;;;;5004659;28;20385;-72
2021/08/16 11:56:10;;;;;;;11.57;4.40;;;15.00;99.90;;;;;;5002119;28;20109;-73
2021/08/16 11:58:37;;;;;;;8.65;3.38;;;15.00;99.90;;;;;;5001464;28;20029;-72
2021/08/16 12:01:05;;;;;;;16.52;4.72;;;14.80;99.90;;;;;;4996251;28;20373;-72
2021/08/16 12:03:33;;;;;;;11.02;4.40;;;14.80;99.90;;;;;;4999850;28;20060;-72
2021/08/16 12:06:00;;;;;;;13.98;5.30;;;14.90;99.90;;;;;;5000316;28;20120;-73
2021/08/16 12:08:25;;;;;;;13.27;5.05;;;15.10;99.90;;;;;;5001449;28;20018;-73
2021/08/16 12:10:51;;;;;;;8.35;3.88;;;15.20;99.90;;;;;;4985305;28;20113;-72
2021/08/16 12:13:22;;;;;;;14.27;5.18;;;15.20;99.90;;;;;;4986308;28;20109;-72
2021/08/16 12:15:48;;;;;;;9.48;3.95;;;15.30;99.90;;;;;;5003877;28;20076;-72
2021/08/16 12:18:15;;;;;;;13.55;4.95;;;15.20;99.90;;;;;;5003410;28;20025;-72
2021/08/16 12:20:48;;;;;;;15.55;6.15;;;15.30;99.90;;;;;;5002001;28;20044;-72
2021/08/16 12:23:34;;;;;;;12.32;5.35;;;15.40;99.90;;;;;;5001663;28;20045;-72
2021/08/16 12:26:06;;;;;;;12.60;5.47;;;15.20;99.90;;;;;;5001895;28;20034;-72
2021/08/16 12:28:40;;;;;;;10.57;4.10;;;15.20;99.90;;;;;;5001150;28;20026;-72
2021/08/16 12:31:18;;;;;;;14.85;5.28;;;15.10;99.90;;;;;;4987316;28;20517;-72
2021/08/16 12:33:59;;;;;;;14.05;5.15;;;15.10;99.90;;;;;;5002850;28;20666;-71
2021/08/16 12:36:32;;;;;;;10.10;4.32;;;15.20;99.90;;;;;;5004987;28;20490;-72
2021/08/16 12:39:14;;;;;;;9.68;4.15;;;15.20;99.90;;;;;;5002543;28;20452;-71
2021/08/16 12:41:40;;;;;;;14.20;4.28;;;15.10;99.90;;;;;;5000571;28;20363;-71
2021/08/16 12:44:18;;;;;;;15.02;5.47;;;14.90;99.90;;;;;;4988172;28;20028;-71